sensor_id;sensor_type;location;lat;lon;timestamp;P1;durP1;ratioP1;P2;durP2;ratioP2
9056;SDS011;4563;54.756;9.400;2023-04-29T00:01:16;5.40;;;3.43;;
9056;SDS011;4563;54.756;9.400;2023-04-29T00:03:43;4.27;;;3.80;;
9056;SDS011;4563;54.756;9.400;2023-04-29T00:06:11;4.77;;;3.40;;
9056;SDS011;4563;54.756;9.400;2023-04-29T00:08:38;13.60;;;4.83;;
9056;SDS011;4563;54.756;9.400;2023-04-29T00:11:05;6.50;;;4.43;;
9056;SDS011;4563;54.756;9.400;2023-04-29T00:13:32;6.40;;;3.70;;
9056;SDS011;4563;54.756;9.400;2023-04-29T00:15:59;3.97;;;3.60;;
9056;SDS011;4563;54.756;9.400;2023-04-29T00:18:25;6.07;;;4.03;;
9056;SDS011;4563;54.756;9.400;2023-04-29T00:20:52;6.77;;;4.80;;
9056;SDS011;4563;54.756;9.400;2023-04-29T00:23:20;8.13;;;3.83;;
9056;SDS011;4563;54.756;9.400;2023-04-29T00:25:47;5.80;;;3.70;;
9056;SDS011;4563;54.756;9.400;2023-04-29T00:28:18;8.90;;;4.03;;
9056;SDS011;4563;54.756;9.400;2023-04-29T00:30:45;6.53;;;3.50;;
9056;SDS011;4563;54.756;9.400;2023-04-29T00:33:12;6.07;;;3.57;;
9056;SDS011;4563;54.756;9.400;2023-04-29T00:35:39;6.37;;;3.93;;
9056;SDS011;4563;54.756;9.400;2023-04-29T00:38:06;5.97;;;3.43;;
9056;SDS011;4563;54.756;9.400;2023-04-29T00:40:34;5.63;;;3.77;;
9056;SDS011;4563;54.756;9.400;2023-04-29T00:43:01;6.27;;;3.93;;
9056;SDS011;4563;54.756;9.400;2023-04-29T00:45:28;4.27;;;3.87;;
9056;SDS011;4563;54.756;9.400;2023-04-29T00:47:55;5.60;;;4.07;;
9056;SDS011;4563;54.756;9.400;2023-04-29T00:50:22;4.33;;;3.93;;
9056;SDS011;4563;54.756;9.400;2023-04-29T00:52:49;5.77;;;4.23;;
9056;SDS011;4563;54.756;9.400;2023-04-29T00:55:17;6.03;;;4.10;;
9056;SDS011;4563;54.756;9.400;2023-04-29T00:57:46;8.43;;;4.33;;
9056;SDS011;4563;54.756;9.400;2023-04-29T01:00:16;5.00;;;3.97;;
9056;SDS011;4563;54.756;9.400;2023-04-29T01:02:43;9.90;;;4.17;;
9056;SDS011;4563;54.756;9.400;2023-04-29T01:05:12;5.77;;;3.60;;
9056;SDS011;4563;54.756;9.400;2023-04-29T01:07:42;5.73;;;3.60;;
9056;SDS011;4563;54.756;9.400;2023-04-29T01:10:18;6.53;;;3.87;;
9056;SDS011;4563;54.756;9.400;2023-04-29T01:12:53;4.80;;;4.00;;
9056;SDS011;4563;54.756;9.400;2023-04-29T01:15:27;7.00;;;4.67;;
9056;SDS011;4563;54.756;9.400;2023-04-29T01:17:58;4.30;;;3.53;;
9056;SDS011;4563;54.756;9.400;2023-04-29T01:20:29;4.97;;;4.13;;
9056;SDS011;4563;54.756;9.400;2023-04-29T01:22:57;4.70;;;3.90;;
9056;SDS011;4563;54.756;9.400;2023-04-29T01:25:26;7.77;;;4.57;;
9056;SDS011;4563;54.756;9.400;2023-04-29T01:27:54;5.47;;;4.70;;
9056;SDS011;4563;54.756;9.400;2023-04-29T01:30:30;7.13;;;4.43;;
9056;SDS011;4563;54.756;9.400;2023-04-29T01:33:05;6.53;;;4.33;;
9056;SDS011;4563;54.756;9.400;2023-04-29T01:35:43;5.23;;;4.20;;
9056;SDS011;4563;54.756;9.400;2023-04-29T01:38:17;7.50;;;4.87;;
9056;SDS011;4563;54.756;9.400;2023-04-29T01:40:55;4.67;;;4.27;;
9056;SDS011;4563;54.756;9.400;2023-04-29T01:43:31;5.07;;;3.83;;
9056;SDS011;4563;54.756;9.400;2023-04-29T01:46:02;4.57;;;3.70;;
9056;SDS011;4563;54.756;9.400;2023-04-29T01:48:34;4.93;;;4.10;;
9056;SDS011;4563;54.756;9.400;2023-04-29T01:51:02;4.93;;;4.50;;
9056;SDS011;4563;54.756;9.400;2023-04-29T01:53:30;6.13;;;4.30;;
9056;SDS011;4563;54.756;9.400;2023-04-29T01:55:58;5.30;;;3.73;;
9056;SDS011;4563;54.756;9.400;2023-04-29T01:58:25;7.30;;;4.47;;
9056;SDS011;4563;54.756;9.400;2023-04-29T02:00:52;5.83;;;3.80;;
9056;SDS011;4563;54.756;9.400;2023-04-29T02:03:19;8.03;;;4.90;;
9056;SDS011;4563;54.756;9.400;2023-04-29T02:05:46;8.63;;;5.03;;
9056;SDS011;4563;54.756;9.400;2023-04-29T02:08:15;5.93;;;4.53;;
9056;SDS011;4563;54.756;9.400;2023-04-29T02:10:50;7.53;;;4.53;;
9056;SDS011;4563;54.756;9.400;2023-04-29T02:13:19;6.47;;;4.10;;
9056;SDS011;4563;54.756;9.400;2023-04-29T02:15:46;5.87;;;4.10;;
9056;SDS011;4563;54.756;9.400;2023-04-29T02:18:13;5.37;;;4.17;;
9056;SDS011;4563;54.756;9.400;2023-04-29T02:20:40;8.97;;;5.00;;
9056;SDS011;4563;54.756;9.400;2023-04-29T02:23:07;4.60;;;4.20;;
9056;SDS011;4563;54.756;9.400;2023-04-29T02:25:34;5.40;;;4.37;;
9056;SDS011;4563;54.756;9.400;2023-04-29T02:28:01;7.37;;;5.10;;
9056;SDS011;4563;54.756;9.400;2023-04-29T02:30:29;7.77;;;4.27;;
9056;SDS011;4563;54.756;9.400;2023-04-29T02:32:56;7.47;;;4.20;;
9056;SDS011;4563;54.756;9.400;2023-04-29T02:35:23;9.17;;;4.40;;
9056;SDS011;4563;54.756;9.400;2023-04-29T02:37:50;5.10;;;3.87;;
9056;SDS011;4563;54.756;9.400;2023-04-29T02:40:17;8.50;;;4.67;;
9056;SDS011;4563;54.756;9.400;2023-04-29T02:42:45;4.53;;;4.13;;
9056;SDS011;4563;54.756;9.400;2023-04-29T02:45:12;5.40;;;3.67;;
9056;SDS011;4563;54.756;9.400;2023-04-29T02:47:40;5.67;;;4.07;;
9056;SDS011;4563;54.756;9.400;2023-04-29T02:50:07;4.53;;;3.57;;
9056;SDS011;4563;54.756;9.400;2023-04-29T02:52:34;6.83;;;4.30;;
9056;SDS011;4563;54.756;9.400;2023-04-29T02:55:02;7.00;;;3.80;;
9056;SDS011;4563;54.756;9.400;2023-04-29T02:57:29;8.00;;;3.70;;
9056;SDS011;4563;54.756;9.400;2023-04-29T02:59:56;5.50;;;4.20;;
9056;SDS011;4563;54.756;9.400;2023-04-29T03:02:23;5.10;;;4.07;;
9056;SDS011;4563;54.756;9.400;2023-04-29T03:04:52;4.33;;;3.57;;
9056;SDS011;4563;54.756;9.400;2023-04-29T03:07:18;8.67;;;3.93;;
9056;SDS011;4563;54.756;9.400;2023-04-29T03:09:46;4.00;;;3.70;;
9056;SDS011;4563;54.756;9.400;2023-04-29T03:12:12;4.37;;;3.97;;
9056;SDS011;4563;54.756;9.400;2023-04-29T03:14:40;5.87;;;3.97;;
9056;SDS011;4563;54.756;9.400;2023-04-29T03:17:07;3.90;;;3.60;;
9056;SDS011;4563;54.756;9.400;2023-04-29T03:19:34;5.43;;;4.30;;
9056;SDS011;4563;54.756;9.400;2023-04-29T03:22:02;5.07;;;3.70;;
9056;SDS011;4563;54.756;9.400;2023-04-29T03:24:30;10.80;;;4.73;;
9056;SDS011;4563;54.756;9.400;2023-04-29T03:26:57;5.53;;;4.97;;
9056;SDS011;4563;54.756;9.400;2023-04-29T03:29:25;8.40;;;4.70;;
9056;SDS011;4563;54.756;9.400;2023-04-29T03:31:52;8.63;;;5.03;;
9056;SDS011;4563;54.756;9.400;2023-04-29T03:34:19;8.00;;;4.37;;
9056;SDS011;4563;54.756;9.400;2023-04-29T03:36:46;6.00;;;3.67;;
9056;SDS011;4563;54.756;9.400;2023-04-29T03:39:14;7.17;;;4.13;;
9056;SDS011;4563;54.756;9.400;2023-04-29T03:41:40;5.70;;;4.07;;
9056;SDS011;4563;54.756;9.400;2023-04-29T03:44:07;4.90;;;4.20;;
9056;SDS011;4563;54.756;9.400;2023-04-29T03:46:34;7.00;;;4.53;;
9056;SDS011;4563;54.756;9.400;2023-04-29T03:49:01;5.30;;;3.83;;
9056;SDS011;4563;54.756;9.400;2023-04-29T03:51:28;7.13;;;4.03;;
9056;SDS011;4563;54.756;9.400;2023-04-29T03:53:55;7.10;;;4.73;;
9056;SDS011;4563;54.756;9.400;2023-04-29T03:56:23;5.90;;;4.27;;
9056;SDS011;4563;54.756;9.400;2023-04-29T03:58:51;6.83;;;4.70;;
9056;SDS011;4563;54.756;9.400;2023-04-29T04:01:17;6.17;;;4.60;;
9056;SDS011;4563;54.756;9.400;2023-04-29T04:03:44;7.60;;;4.07;;
9056;SDS011;4563;54.756;9.400;2023-04-29T04:06:11;8.00;;;4.07;;
9056;SDS011;4563;54.756;9.400;2023-04-29T04:08:39;4.23;;;3.80;;
9056;SDS011;4563;54.756;9.400;2023-04-29T04:11:06;8.77;;;4.43;;
9056;SDS011;4563;54.756;9.400;2023-04-29T04:13:35;6.07;;;4.23;;
9056;SDS011;4563;54.756;9.400;2023-04-29T04:16:02;5.37;;;4.47;;
9056;SDS011;4563;54.756;9.400;2023-04-29T04:18:29;7.43;;;3.70;;
9056;SDS011;4563;54.756;9.400;2023-04-29T04:20:55;5.63;;;3.90;;
9056;SDS011;4563;54.756;9.400;2023-04-29T04:23:22;8.07;;;3.93;;
9056;SDS011;4563;54.756;9.400;2023-04-29T04:25:49;4.67;;;3.87;;
9056;SDS011;4563;54.756;9.400;2023-04-29T04:28:17;5.17;;;3.40;;
9056;SDS011;4563;54.756;9.400;2023-04-29T04:30:46;4.83;;;4.07;;
9056;SDS011;4563;54.756;9.400;2023-04-29T04:33:13;6.03;;;4.60;;
9056;SDS011;4563;54.756;9.400;2023-04-29T04:35:40;5.10;;;3.40;;
9056;SDS011;4563;54.756;9.400;2023-04-29T04:38:06;6.27;;;4.53;;
9056;SDS011;4563;54.756;9.400;2023-04-29T04:40:35;4.03;;;3.67;;
9056;SDS011;4563;54.756;9.400;2023-04-29T04:43:02;5.10;;;3.73;;
9056;SDS011;4563;54.756;9.400;2023-04-29T04:45:29;7.53;;;4.20;;
9056;SDS011;4563;54.756;9.400;2023-04-29T04:47:57;8.37;;;4.07;;
9056;SDS011;4563;54.756;9.400;2023-04-29T04:50:26;4.80;;;4.23;;
9056;SDS011;4563;54.756;9.400;2023-04-29T04:52:55;5.47;;;4.63;;
9056;SDS011;4563;54.756;9.400;2023-04-29T04:55:22;7.17;;;5.10;;
9056;SDS011;4563;54.756;9.400;2023-04-29T04:57:49;4.30;;;3.90;;
9056;SDS011;4563;54.756;9.400;2023-04-29T05:00:16;6.37;;;3.80;;
9056;SDS011;4563;54.756;9.400;2023-04-29T05:02:43;4.80;;;3.93;;
9056;SDS011;4563;54.756;9.400;2023-04-29T05:05:12;4.30;;;3.83;;
9056;SDS011;4563;54.756;9.400;2023-04-29T05:07:39;5.67;;;4.50;;
9056;SDS011;4563;54.756;9.400;2023-04-29T05:10:07;5.77;;;4.47;;
9056;SDS011;4563;54.756;9.400;2023-04-29T05:12:35;6.07;;;4.70;;
9056;SDS011;4563;54.756;9.400;2023-04-29T05:15:02;7.80;;;5.13;;
9056;SDS011;4563;54.756;9.400;2023-04-29T05:17:29;7.30;;;4.63;;
9056;SDS011;4563;54.756;9.400;2023-04-29T05:19:57;8.37;;;4.90;;
9056;SDS011;4563;54.756;9.400;2023-04-29T05:22:26;5.30;;;4.77;;
9056;SDS011;4563;54.756;9.400;2023-04-29T05:24:52;12.27;;;4.93;;
9056;SDS011;4563;54.756;9.400;2023-04-29T05:27:26;6.43;;;4.97;;
9056;SDS011;4563;54.756;9.400;2023-04-29T05:29:54;6.30;;;5.20;;
9056;SDS011;4563;54.756;9.400;2023-04-29T05:32:21;5.00;;;4.33;;
9056;SDS011;4563;54.756;9.400;2023-04-29T05:34:48;5.10;;;4.53;;
9056;SDS011;4563;54.756;9.400;2023-04-29T05:37:15;6.70;;;4.57;;
9056;SDS011;4563;54.756;9.400;2023-04-29T05:39:44;4.67;;;4.13;;
9056;SDS011;4563;54.756;9.400;2023-04-29T05:42:11;5.47;;;4.57;;
9056;SDS011;4563;54.756;9.400;2023-04-29T05:44:38;6.00;;;4.17;;
9056;SDS011;4563;54.756;9.400;2023-04-29T05:47:06;6.33;;;4.13;;
9056;SDS011;4563;54.756;9.400;2023-04-29T05:49:33;5.80;;;4.23;;
9056;SDS011;4563;54.756;9.400;2023-04-29T05:52:00;6.80;;;4.80;;
9056;SDS011;4563;54.756;9.400;2023-04-29T05:54:30;5.70;;;4.40;;
9056;SDS011;4563;54.756;9.400;2023-04-29T05:56:59;4.93;;;4.13;;
9056;SDS011;4563;54.756;9.400;2023-04-29T05:59:27;9.43;;;4.17;;
9056;SDS011;4563;54.756;9.400;2023-04-29T06:01:54;5.60;;;4.47;;
9056;SDS011;4563;54.756;9.400;2023-04-29T06:04:21;7.00;;;4.33;;
9056;SDS011;4563;54.756;9.400;2023-04-29T06:06:49;10.03;;;7.03;;
9056;SDS011;4563;54.756;9.400;2023-04-29T06:09:16;9.27;;;7.37;;
9056;SDS011;4563;54.756;9.400;2023-04-29T06:11:44;8.37;;;4.57;;
9056;SDS011;4563;54.756;9.400;2023-04-29T06:14:13;8.73;;;4.17;;
9056;SDS011;4563;54.756;9.400;2023-04-29T06:16:40;4.53;;;4.13;;
9056;SDS011;4563;54.756;9.400;2023-04-29T06:19:07;6.17;;;4.87;;
9056;SDS011;4563;54.756;9.400;2023-04-29T06:21:35;5.80;;;4.07;;
9056;SDS011;4563;54.756;9.400;2023-04-29T06:24:02;7.60;;;4.03;;
9056;SDS011;4563;54.756;9.400;2023-04-29T06:26:29;4.90;;;4.50;;
9056;SDS011;4563;54.756;9.400;2023-04-29T06:28:56;6.40;;;4.03;;
9056;SDS011;4563;54.756;9.400;2023-04-29T06:31:25;6.27;;;4.30;;
9056;SDS011;4563;54.756;9.400;2023-04-29T06:33:54;4.60;;;4.20;;
9056;SDS011;4563;54.756;9.400;2023-04-29T06:36:21;6.33;;;4.10;;
9056;SDS011;4563;54.756;9.400;2023-04-29T06:38:49;5.60;;;4.00;;
9056;SDS011;4563;54.756;9.400;2023-04-29T06:41:16;4.50;;;4.07;;
9056;SDS011;4563;54.756;9.400;2023-04-29T06:43:45;5.23;;;4.40;;
9056;SDS011;4563;54.756;9.400;2023-04-29T06:46:12;7.80;;;4.23;;
9056;SDS011;4563;54.756;9.400;2023-04-29T06:48:41;9.00;;;3.80;;
9056;SDS011;4563;54.756;9.400;2023-04-29T06:51:08;6.90;;;3.57;;
9056;SDS011;4563;54.756;9.400;2023-04-29T06:53:36;7.70;;;4.60;;
9056;SDS011;4563;54.756;9.400;2023-04-29T06:56:04;7.10;;;4.27;;
9056;SDS011;4563;54.756;9.400;2023-04-29T06:58:31;7.97;;;4.30;;
9056;SDS011;4563;54.756;9.400;2023-04-29T07:00:59;6.17;;;4.40;;
9056;SDS011;4563;54.756;9.400;2023-04-29T07:03:27;4.73;;;3.50;;
9056;SDS011;4563;54.756;9.400;2023-04-29T07:05:56;6.30;;;4.80;;
9056;SDS011;4563;54.756;9.400;2023-04-29T07:08:22;6.20;;;4.63;;
9056;SDS011;4563;54.756;9.400;2023-04-29T07:10:53;5.27;;;4.33;;
9056;SDS011;4563;54.756;9.400;2023-04-29T07:13:20;7.73;;;4.63;;
9056;SDS011;4563;54.756;9.400;2023-04-29T07:15:47;9.97;;;4.50;;
9056;SDS011;4563;54.756;9.400;2023-04-29T07:18:14;6.57;;;4.40;;
9056;SDS011;4563;54.756;9.400;2023-04-29T07:20:42;4.97;;;4.47;;
9056;SDS011;4563;54.756;9.400;2023-04-29T07:23:11;12.27;;;5.03;;
9056;SDS011;4563;54.756;9.400;2023-04-29T07:25:38;12.77;;;5.07;;
9056;SDS011;4563;54.756;9.400;2023-04-29T07:28:06;7.07;;;4.60;;
9056;SDS011;4563;54.756;9.400;2023-04-29T07:30:33;4.93;;;4.43;;
9056;SDS011;4563;54.756;9.400;2023-04-29T07:33:00;7.70;;;4.03;;
9056;SDS011;4563;54.756;9.400;2023-04-29T07:35:28;4.80;;;4.37;;
9056;SDS011;4563;54.756;9.400;2023-04-29T07:37:55;5.07;;;4.57;;
9056;SDS011;4563;54.756;9.400;2023-04-29T07:40:24;7.90;;;3.87;;
9056;SDS011;4563;54.756;9.400;2023-04-29T07:42:51;7.87;;;4.87;;
9056;SDS011;4563;54.756;9.400;2023-04-29T07:45:18;8.13;;;4.63;;
9056;SDS011;4563;54.756;9.400;2023-04-29T07:47:45;8.63;;;4.90;;
9056;SDS011;4563;54.756;9.400;2023-04-29T07:50:11;6.33;;;4.63;;
9056;SDS011;4563;54.756;9.400;2023-04-29T07:52:38;7.50;;;4.63;;
9056;SDS011;4563;54.756;9.400;2023-04-29T07:55:05;6.87;;;4.23;;
9056;SDS011;4563;54.756;9.400;2023-04-29T07:57:34;5.03;;;4.20;;
9056;SDS011;4563;54.756;9.400;2023-04-29T08:00:02;5.87;;;3.83;;
9056;SDS011;4563;54.756;9.400;2023-04-29T08:02:32;6.30;;;3.80;;
9056;SDS011;4563;54.756;9.400;2023-04-29T08:04:59;5.90;;;3.27;;
9056;SDS011;4563;54.756;9.400;2023-04-29T08:07:29;7.53;;;3.13;;
9056;SDS011;4563;54.756;9.400;2023-04-29T08:09:56;5.97;;;3.20;;
9056;SDS011;4563;54.756;9.400;2023-04-29T08:12:23;4.50;;;2.67;;
9056;SDS011;4563;54.756;9.400;2023-04-29T08:14:52;6.60;;;2.83;;
9056;SDS011;4563;54.756;9.400;2023-04-29T08:17:20;4.47;;;2.70;;
9056;SDS011;4563;54.756;9.400;2023-04-29T08:19:47;5.60;;;2.50;;
9056;SDS011;4563;54.756;9.400;2023-04-29T08:22:15;5.23;;;2.67;;
9056;SDS011;4563;54.756;9.400;2023-04-29T08:24:43;4.27;;;2.80;;
9056;SDS011;4563;54.756;9.400;2023-04-29T08:27:10;6.10;;;2.57;;
9056;SDS011;4563;54.756;9.400;2023-04-29T08:29:38;8.30;;;2.50;;
9056;SDS011;4563;54.756;9.400;2023-04-29T08:32:09;8.33;;;2.20;;
9056;SDS011;4563;54.756;9.400;2023-04-29T08:34:39;4.03;;;2.27;;
9056;SDS011;4563;54.756;9.400;2023-04-29T08:37:06;4.73;;;2.33;;
9056;SDS011;4563;54.756;9.400;2023-04-29T08:39:34;7.73;;;2.73;;
9056;SDS011;4563;54.756;9.400;2023-04-29T08:42:11;4.13;;;2.40;;
9056;SDS011;4563;54.756;9.400;2023-04-29T08:44:39;5.60;;;2.30;;
9056;SDS011;4563;54.756;9.400;2023-04-29T08:47:08;2.80;;;2.50;;
9056;SDS011;4563;54.756;9.400;2023-04-29T08:49:36;4.40;;;1.60;;
9056;SDS011;4563;54.756;9.400;2023-04-29T08:52:03;3.13;;;2.30;;
9056;SDS011;4563;54.756;9.400;2023-04-29T08:54:30;7.77;;;2.37;;
9056;SDS011;4563;54.756;9.400;2023-04-29T08:57:01;4.73;;;2.47;;
9056;SDS011;4563;54.756;9.400;2023-04-29T08:59:31;2.03;;;1.93;;
9056;SDS011;4563;54.756;9.400;2023-04-29T09:01:59;4.47;;;2.87;;
9056;SDS011;4563;54.756;9.400;2023-04-29T09:04:35;3.47;;;1.90;;
9056;SDS011;4563;54.756;9.400;2023-04-29T09:07:12;4.73;;;2.57;;
9056;SDS011;4563;54.756;9.400;2023-04-29T09:09:41;4.83;;;2.47;;
9056;SDS011;4563;54.756;9.400;2023-04-29T09:12:09;4.40;;;2.80;;
9056;SDS011;4563;54.756;9.400;2023-04-29T09:14:37;2.50;;;2.30;;
9056;SDS011;4563;54.756;9.400;2023-04-29T09:17:04;3.03;;;2.20;;
9056;SDS011;4563;54.756;9.400;2023-04-29T09:19:38;5.47;;;2.13;;
9056;SDS011;4563;54.756;9.400;2023-04-29T09:22:16;6.13;;;1.90;;
9056;SDS011;4563;54.756;9.400;2023-04-29T09:24:44;3.23;;;1.77;;
9056;SDS011;4563;54.756;9.400;2023-04-29T09:27:24;2.17;;;1.67;;
9056;SDS011;4563;54.756;9.400;2023-04-29T09:29:59;3.77;;;1.13;;
9056;SDS011;4563;54.756;9.400;2023-04-29T09:32:26;3.60;;;1.00;;
9056;SDS011;4563;54.756;9.400;2023-04-29T09:34:56;1.87;;;0.80;;
9056;SDS011;4563;54.756;9.400;2023-04-29T09:37:46;1.70;;;0.93;;
9056;SDS011;4563;54.756;9.400;2023-04-29T09:40:26;3.20;;;1.10;;
9056;SDS011;4563;54.756;9.400;2023-04-29T09:42:54;3.30;;;0.60;;
9056;SDS011;4563;54.756;9.400;2023-04-29T09:45:31;0.60;;;0.60;;
9056;SDS011;4563;54.756;9.400;2023-04-29T09:48:02;2.53;;;0.60;;
9056;SDS011;4563;54.756;9.400;2023-04-29T09:50:33;1.43;;;0.77;;
9056;SDS011;4563;54.756;9.400;2023-04-29T09:53:02;1.93;;;0.90;;
9056;SDS011;4563;54.756;9.400;2023-04-29T09:55:30;1.93;;;0.70;;
9056;SDS011;4563;54.756;9.400;2023-04-29T09:58:00;3.23;;;1.00;;
9056;SDS011;4563;54.756;9.400;2023-04-29T10:00:29;4.60;;;0.87;;
9056;SDS011;4563;54.756;9.400;2023-04-29T10:02:59;2.80;;;0.90;;
9056;SDS011;4563;54.756;9.400;2023-04-29T10:05:28;2.53;;;0.80;;
9056;SDS011;4563;54.756;9.400;2023-04-29T10:07:58;0.93;;;0.60;;
9056;SDS011;4563;54.756;9.400;2023-04-29T10:10:26;1.10;;;0.73;;
9056;SDS011;4563;54.756;9.400;2023-04-29T10:13:00;0.80;;;0.60;;
9056;SDS011;4563;54.756;9.400;2023-04-29T10:15:28;0.60;;;0.60;;
9056;SDS011;4563;54.756;9.400;2023-04-29T10:18:08;2.17;;;0.80;;
9056;SDS011;4563;54.756;9.400;2023-04-29T10:20:44;2.53;;;0.80;;
9056;SDS011;4563;54.756;9.400;2023-04-29T10:23:17;1.92;;;0.70;;
9056;SDS011;4563;54.756;9.400;2023-04-29T10:25:51;1.07;;;0.60;;
9056;SDS011;4563;54.756;9.400;2023-04-29T10:28:24;1.17;;;0.70;;
9056;SDS011;4563;54.756;9.400;2023-04-29T10:30:53;0.55;;;0.55;;
9056;SDS011;4563;54.756;9.400;2023-04-29T10:33:23;1.65;;;0.80;;
9056;SDS011;4563;54.756;9.400;2023-04-29T10:35:55;0.70;;;0.68;;
9056;SDS011;4563;54.756;9.400;2023-04-29T10:38:28;1.63;;;0.95;;
9056;SDS011;4563;54.756;9.400;2023-04-29T10:40:59;1.65;;;0.80;;
9056;SDS011;4563;54.756;9.400;2023-04-29T10:43:34;0.77;;;0.77;;
9056;SDS011;4563;54.756;9.400;2023-04-29T10:46:18;0.60;;;0.60;;
9056;SDS011;4563;54.756;9.400;2023-04-29T10:48:47;3.35;;;0.90;;
9056;SDS011;4563;54.756;9.400;2023-04-29T10:51:30;1.63;;;0.70;;
9056;SDS011;4563;54.756;9.400;2023-04-29T10:54:05;2.75;;;1.00;;
9056;SDS011;4563;54.756;9.400;2023-04-29T10:56:38;2.58;;;1.00;;
9056;SDS011;4563;54.756;9.400;2023-04-29T10:59:10;2.00;;;0.65;;
9056;SDS011;4563;54.756;9.400;2023-04-29T11:01:42;5.22;;;0.80;;
9056;SDS011;4563;54.756;9.400;2023-04-29T11:04:13;1.52;;;0.88;;
9056;SDS011;4563;54.756;9.400;2023-04-29T11:06:42;0.85;;;0.50;;
9056;SDS011;4563;54.756;9.400;2023-04-29T11:09:14;1.08;;;0.98;;
9056;SDS011;4563;54.756;9.400;2023-04-29T11:11:56;1.20;;;0.50;;
9056;SDS011;4563;54.756;9.400;2023-04-29T11:14:28;0.75;;;0.40;;
9056;SDS011;4563;54.756;9.400;2023-04-29T11:16:58;0.50;;;0.30;;
9056;SDS011;4563;54.756;9.400;2023-04-29T11:19:29;1.00;;;0.52;;
9056;SDS011;4563;54.756;9.400;2023-04-29T11:22:08;0.50;;;0.40;;
9056;SDS011;4563;54.756;9.400;2023-04-29T11:24:51;0.77;;;0.40;;
9056;SDS011;4563;54.756;9.400;2023-04-29T11:27:22;2.72;;;0.43;;
9056;SDS011;4563;54.756;9.400;2023-04-29T11:29:51;1.40;;;0.57;;
9056;SDS011;4563;54.756;9.400;2023-04-29T11:32:23;1.75;;;0.68;;
9056;SDS011;4563;54.756;9.400;2023-04-29T11:34:51;1.33;;;0.93;;
9056;SDS011;4563;54.756;9.400;2023-04-29T11:37:20;3.17;;;0.60;;
9056;SDS011;4563;54.756;9.400;2023-04-29T11:39:50;3.20;;;0.80;;
9056;SDS011;4563;54.756;9.400;2023-04-29T11:42:28;1.17;;;0.65;;
9056;SDS011;4563;54.756;9.400;2023-04-29T11:44:56;1.58;;;0.80;;
9056;SDS011;4563;54.756;9.400;2023-04-29T11:47:26;0.75;;;0.60;;
9056;SDS011;4563;54.756;9.400;2023-04-29T11:50:00;1.23;;;0.47;;
9056;SDS011;4563;54.756;9.400;2023-04-29T11:52:32;1.60;;;0.60;;
9056;SDS011;4563;54.756;9.400;2023-04-29T11:55:02;0.50;;;0.50;;
9056;SDS011;4563;54.756;9.400;2023-04-29T11:57:32;1.98;;;0.70;;
9056;SDS011;4563;54.756;9.400;2023-04-29T12:00:00;0.85;;;0.50;;
9056;SDS011;4563;54.756;9.400;2023-04-29T12:02:30;3.65;;;0.40;;
9056;SDS011;4563;54.756;9.400;2023-04-29T12:04:57;0.75;;;0.40;;
9056;SDS011;4563;54.756;9.400;2023-04-29T12:07:26;1.00;;;0.60;;
9056;SDS011;4563;54.756;9.400;2023-04-29T12:09:54;1.90;;;0.60;;
9056;SDS011;4563;54.756;9.400;2023-04-29T12:12:24;1.17;;;0.50;;
9056;SDS011;4563;54.756;9.400;2023-04-29T12:14:51;0.63;;;0.50;;
9056;SDS011;4563;54.756;9.400;2023-04-29T12:17:19;0.73;;;0.43;;
9056;SDS011;4563;54.756;9.400;2023-04-29T12:19:46;0.60;;;0.50;;
9056;SDS011;4563;54.756;9.400;2023-04-29T12:22:14;2.30;;;0.50;;
9056;SDS011;4563;54.756;9.400;2023-04-29T12:24:41;1.03;;;0.60;;
9056;SDS011;4563;54.756;9.400;2023-04-29T12:27:09;0.87;;;0.37;;
9056;SDS011;4563;54.756;9.400;2023-04-29T12:29:38;2.00;;;0.50;;
9056;SDS011;4563;54.756;9.400;2023-04-29T12:32:11;1.50;;;0.70;;
9056;SDS011;4563;54.756;9.400;2023-04-29T12:34:44;2.07;;;0.60;;
9056;SDS011;4563;54.756;9.400;2023-04-29T12:37:12;1.53;;;0.67;;
9056;SDS011;4563;54.756;9.400;2023-04-29T12:39:41;4.30;;;0.70;;
9056;SDS011;4563;54.756;9.400;2023-04-29T12:42:14;3.87;;;0.80;;
9056;SDS011;4563;54.756;9.400;2023-04-29T12:44:45;3.23;;;0.80;;
9056;SDS011;4563;54.756;9.400;2023-04-29T12:47:17;2.37;;;0.80;;
9056;SDS011;4563;54.756;9.400;2023-04-29T12:49:45;1.93;;;0.50;;
9056;SDS011;4563;54.756;9.400;2023-04-29T12:52:14;3.20;;;0.80;;
9056;SDS011;4563;54.756;9.400;2023-04-29T12:54:41;2.30;;;0.60;;
9056;SDS011;4563;54.756;9.400;2023-04-29T12:57:12;2.33;;;0.60;;
9056;SDS011;4563;54.756;9.400;2023-04-29T12:59:39;2.37;;;0.50;;
9056;SDS011;4563;54.756;9.400;2023-04-29T13:02:09;3.30;;;0.57;;
9056;SDS011;4563;54.756;9.400;2023-04-29T13:04:36;2.87;;;0.60;;
9056;SDS011;4563;54.756;9.400;2023-04-29T13:07:03;1.97;;;0.63;;
9056;SDS011;4563;54.756;9.400;2023-04-29T13:09:30;4.37;;;0.53;;
9056;SDS011;4563;54.756;9.400;2023-04-29T13:11:58;2.73;;;0.63;;
9056;SDS011;4563;54.756;9.400;2023-04-29T13:14:25;2.37;;;0.40;;
9056;SDS011;4563;54.756;9.400;2023-04-29T13:16:52;1.50;;;0.70;;
9056;SDS011;4563;54.756;9.400;2023-04-29T13:19:24;4.03;;;0.70;;
9056;SDS011;4563;54.756;9.400;2023-04-29T13:21:51;2.47;;;0.50;;
9056;SDS011;4563;54.756;9.400;2023-04-29T13:24:20;5.50;;;0.43;;
9056;SDS011;4563;54.756;9.400;2023-04-29T13:26:51;1.40;;;0.80;;
9056;SDS011;4563;54.756;9.400;2023-04-29T13:29:19;1.00;;;0.50;;
9056;SDS011;4563;54.756;9.400;2023-04-29T13:31:49;2.10;;;0.87;;
9056;SDS011;4563;54.756;9.400;2023-04-29T13:34:16;1.87;;;0.43;;
9056;SDS011;4563;54.756;9.400;2023-04-29T13:36:48;3.50;;;0.63;;
9056;SDS011;4563;54.756;9.400;2023-04-29T13:39:18;2.23;;;0.50;;
9056;SDS011;4563;54.756;9.400;2023-04-29T13:41:47;3.40;;;0.30;;
9056;SDS011;4563;54.756;9.400;2023-04-29T13:44:15;4.67;;;0.37;;
9056;SDS011;4563;54.756;9.400;2023-04-29T13:46:44;1.60;;;0.40;;
9056;SDS011;4563;54.756;9.400;2023-04-29T13:49:16;4.30;;;0.40;;
9056;SDS011;4563;54.756;9.400;2023-04-29T13:51:43;4.03;;;0.50;;
9056;SDS011;4563;54.756;9.400;2023-04-29T13:54:12;1.50;;;0.50;;
9056;SDS011;4563;54.756;9.400;2023-04-29T13:56:41;2.13;;;0.40;;
9056;SDS011;4563;54.756;9.400;2023-04-29T13:59:08;1.63;;;0.40;;
9056;SDS011;4563;54.756;9.400;2023-04-29T14:01:36;1.60;;;0.40;;
9056;SDS011;4563;54.756;9.400;2023-04-29T14:04:03;1.80;;;0.30;;
9056;SDS011;4563;54.756;9.400;2023-04-29T14:06:31;1.40;;;0.37;;
9056;SDS011;4563;54.756;9.400;2023-04-29T14:08:58;3.90;;;1.33;;
9056;SDS011;4563;54.756;9.400;2023-04-29T14:11:26;3.37;;;0.47;;
9056;SDS011;4563;54.756;9.400;2023-04-29T14:13:54;2.90;;;0.70;;
9056;SDS011;4563;54.756;9.400;2023-04-29T14:16:21;2.07;;;0.50;;
9056;SDS011;4563;54.756;9.400;2023-04-29T14:18:48;3.20;;;0.40;;
9056;SDS011;4563;54.756;9.400;2023-04-29T14:21:15;1.07;;;0.43;;
9056;SDS011;4563;54.756;9.400;2023-04-29T14:23:42;3.63;;;0.33;;
9056;SDS011;4563;54.756;9.400;2023-04-29T14:26:11;0.93;;;0.27;;
9056;SDS011;4563;54.756;9.400;2023-04-29T14:28:40;2.07;;;0.40;;
9056;SDS011;4563;54.756;9.400;2023-04-29T14:31:10;1.30;;;0.40;;
9056;SDS011;4563;54.756;9.400;2023-04-29T14:33:41;0.90;;;0.40;;
9056;SDS011;4563;54.756;9.400;2023-04-29T14:36:08;2.03;;;0.50;;
9056;SDS011;4563;54.756;9.400;2023-04-29T14:38:36;2.03;;;0.60;;
9056;SDS011;4563;54.756;9.400;2023-04-29T14:41:05;2.20;;;0.50;;
9056;SDS011;4563;54.756;9.400;2023-04-29T14:43:34;1.30;;;0.30;;
9056;SDS011;4563;54.756;9.400;2023-04-29T14:46:03;4.00;;;0.90;;
9056;SDS011;4563;54.756;9.400;2023-04-29T14:48:33;3.07;;;0.63;;
9056;SDS011;4563;54.756;9.400;2023-04-29T14:51:08;2.63;;;0.50;;
9056;SDS011;4563;54.756;9.400;2023-04-29T14:53:35;3.87;;;0.43;;
9056;SDS011;4563;54.756;9.400;2023-04-29T14:56:08;2.03;;;0.40;;
9056;SDS011;4563;54.756;9.400;2023-04-29T14:58:35;1.70;;;0.27;;
9056;SDS011;4563;54.756;9.400;2023-04-29T15:01:04;5.10;;;0.43;;
9056;SDS011;4563;54.756;9.400;2023-04-29T15:03:31;0.70;;;0.23;;
9056;SDS011;4563;54.756;9.400;2023-04-29T15:05:59;2.40;;;0.30;;
9056;SDS011;4563;54.756;9.400;2023-04-29T15:08:27;3.00;;;2.70;;
9056;SDS011;4563;54.756;9.400;2023-04-29T15:10:54;4.63;;;0.50;;
9056;SDS011;4563;54.756;9.400;2023-04-29T15:13:22;3.23;;;0.60;;
9056;SDS011;4563;54.756;9.400;2023-04-29T15:15:49;3.17;;;0.40;;
9056;SDS011;4563;54.756;9.400;2023-04-29T15:18:19;3.87;;;0.70;;
9056;SDS011;4563;54.756;9.400;2023-04-29T15:20:47;3.03;;;0.67;;
9056;SDS011;4563;54.756;9.400;2023-04-29T15:23:15;2.13;;;0.47;;
9056;SDS011;4563;54.756;9.400;2023-04-29T15:25:42;4.00;;;0.50;;